Ponteareas, Spain
Current Conditions -  °F | °C
As of 12:30 PM on Saturday 20 Dec 2014 (Local Time) from LEVX Reporting Station
Broken Clouds Broken Clouds  
Wind Chill: 11°   Ceiling: 5000
Heat Index: 11°   Visibility: 6mi
Dew Point: 10°   Wind: 3mph
Humidity: 94%   Direction: 210°SSW
Pressure: 30.59"   Gusts: NA
Location:  42.18°N, 8.5°W
Report Text: LEVX 201130Z 21003KT 150V230 9999 SCT039 BKN050 11/10 Q1036 NOSIG
Loading
Personal Weather Stations






























Interactive Weather Map New forecast layout! Learn more

10-Day Weather Forecast

Advertisements
Track Severe Weather on mobile